createdAt,value
2022-10-15T00:01:26.351Z,61.40
2022-10-15T00:03:53.460Z,57.15
2022-10-15T00:06:21.707Z,56.58
2022-10-15T00:08:49.420Z,55.97
2022-10-15T00:11:19.841Z,51.10
2022-10-15T00:13:47.242Z,51.00
2022-10-15T00:16:19.251Z,53.30
2022-10-15T00:18:46.588Z,49.90
2022-10-15T00:21:16.052Z,50.00
2022-10-15T00:23:43.771Z,50.00
2022-10-15T00:26:20.728Z,48.65
2022-10-15T00:28:50.783Z,47.25
2022-10-15T00:31:21.133Z,46.97
2022-10-15T00:33:52.129Z,45.50
2022-10-15T00:36:22.137Z,49.72
2022-10-15T00:38:50.527Z,45.30
2022-10-15T00:41:21.631Z,44.42
2022-10-15T00:43:58.572Z,45.85
2022-10-15T00:46:31.714Z,45.58
2022-10-15T00:49:21.456Z,46.58
2022-10-15T00:52:03.464Z,46.00
2022-10-15T00:54:37.605Z,57.65
2022-10-15T00:57:06.195Z,39.78
2022-10-15T00:59:37.270Z,38.65
2022-10-15T01:02:04.497Z,43.30
2022-10-15T01:04:31.881Z,48.55
2022-10-15T01:06:58.940Z,45.90
2022-10-15T01:09:26.616Z,42.70
2022-10-15T01:11:55.560Z,38.08
2022-10-15T01:14:44.418Z,40.67
2022-10-15T01:17:22.499Z,39.67
2022-10-15T01:20:36.833Z,38.88
2022-10-15T01:23:11.695Z,57.45
2022-10-15T01:26:25.983Z,35.05
2022-10-15T01:29:50.170Z,38.47
2022-10-15T01:32:22.818Z,40.75
2022-10-15T01:35:06.830Z,39.65
2022-10-15T01:40:32.510Z,30.15
2022-10-15T01:43:04.013Z,31.50
2022-10-15T01:45:47.131Z,29.48
2022-10-15T01:48:16.152Z,33.53
2022-10-15T01:50:51.108Z,31.58
2022-10-15T01:53:26.915Z,31.67
2022-10-15T01:55:58.738Z,30.00
2022-10-15T01:58:28.853Z,32.40
2022-10-15T02:00:57.558Z,32.50
2022-10-15T02:03:25.064Z,31.67
2022-10-15T02:06:02.395Z,33.55
2022-10-15T02:08:46.076Z,37.92
2022-10-15T02:11:16.894Z,32.67
2022-10-15T02:13:58.461Z,37.70
2022-10-15T02:17:06.539Z,40.65
2022-10-15T02:19:51.700Z,39.15
2022-10-15T02:22:27.256Z,45.80
2022-10-15T02:24:58.923Z,40.70
2022-10-15T02:27:28.525Z,41.58
2022-10-15T02:29:58.190Z,39.90
2022-10-15T02:32:26.488Z,41.65
2022-10-15T02:34:54.546Z,43.30
2022-10-15T02:37:24.656Z,45.83
2022-10-15T02:39:51.690Z,44.92
2022-10-15T02:42:20.285Z,49.33
2022-10-15T02:44:48.927Z,44.63
2022-10-15T02:47:21.990Z,48.65
2022-10-15T02:49:49.995Z,48.83
2022-10-15T02:52:17.996Z,49.38
2022-10-15T02:54:44.964Z,56.30
2022-10-15T02:57:13.845Z,55.38
2022-10-15T02:59:41.181Z,54.28
2022-10-15T03:02:08.383Z,57.55
2022-10-15T03:04:37.386Z,58.80
2022-10-15T03:07:04.335Z,59.45
2022-10-15T03:09:31.251Z,61.75
2022-10-15T03:11:58.277Z,64.72
2022-10-15T03:14:25.286Z,56.00
2022-10-15T03:16:52.328Z,64.00
2022-10-15T03:19:19.937Z,70.22
2022-10-15T03:21:46.930Z,69.57
2022-10-15T03:24:13.856Z,70.07
2022-10-15T03:26:40.863Z,71.20
2022-10-15T03:29:07.825Z,69.82
2022-10-15T03:31:34.961Z,68.95
2022-10-15T03:34:01.999Z,71.93
2022-10-15T03:36:29.891Z,75.28
2022-10-15T03:38:56.926Z,70.38
2022-10-15T03:41:25.924Z,70.63
2022-10-15T03:43:53.009Z,69.35
2022-10-15T03:46:19.935Z,77.60
2022-10-15T03:48:51.156Z,79.50
2022-10-15T03:51:22.078Z,65.85
2022-10-15T03:53:54.215Z,79.80
2022-10-15T03:56:21.231Z,69.72
2022-10-15T03:58:48.185Z,69.75
2022-10-15T04:01:18.033Z,75.10
2022-10-15T04:03:45.337Z,76.30
2022-10-15T04:06:12.326Z,78.72
2022-10-15T04:08:39.430Z,74.60
2022-10-15T04:11:06.406Z,75.85
2022-10-15T04:13:34.402Z,73.68
2022-10-15T04:16:04.092Z,76.28
2022-10-15T04:18:31.343Z,77.78
2022-10-15T04:21:02.680Z,81.72
2022-10-15T04:23:29.743Z,76.53
2022-10-15T04:26:00.639Z,72.43
2022-10-15T04:28:29.039Z,76.60
2022-10-15T04:31:00.537Z,77.60
2022-10-15T04:33:28.950Z,76.20
2022-10-15T04:36:14.673Z,62.35
2022-10-15T04:38:41.822Z,74.15
2022-10-15T04:41:12.524Z,71.38
2022-10-15T04:43:40.903Z,71.43
2022-10-15T04:46:09.763Z,75.85
2022-10-15T04:48:42.862Z,76.32
2022-10-15T04:53:39.726Z,71.80
2022-10-15T04:56:13.977Z,76.15
2022-10-15T04:58:43.087Z,75.25
2022-10-15T05:01:17.355Z,79.32
2022-10-15T05:03:46.680Z,73.90
2022-10-15T05:06:19.778Z,74.13
2022-10-15T05:08:47.500Z,75.47
2022-10-15T05:11:23.571Z,75.28
2022-10-15T05:13:51.371Z,75.28
2022-10-15T05:16:24.033Z,73.65
2022-10-15T05:18:55.671Z,76.97
2022-10-15T05:21:25.102Z,72.53
2022-10-15T05:23:53.164Z,72.53
2022-10-15T05:26:24.552Z,78.57
2022-10-15T05:28:52.274Z,72.65
2022-10-15T05:31:22.278Z,74.22
2022-10-15T05:33:51.188Z,73.88
2022-10-15T05:36:24.109Z,71.35
2022-10-15T05:38:56.501Z,76.00
2022-10-15T05:41:24.290Z,73.55
2022-10-15T05:43:53.867Z,70.10
2022-10-15T05:46:21.534Z,75.10
2022-10-15T05:48:54.015Z,75.82
2022-10-15T05:51:23.646Z,69.43
2022-10-15T05:53:58.625Z,67.22
2022-10-15T05:56:26.402Z,70.43
2022-10-15T05:58:54.058Z,72.50
2022-10-15T06:01:21.302Z,76.82
2022-10-15T06:03:48.285Z,75.15
2022-10-15T06:06:20.899Z,72.07
2022-10-15T06:08:48.810Z,78.85
2022-10-15T06:11:16.973Z,77.55
2022-10-15T06:13:45.118Z,68.80
2022-10-15T06:16:15.596Z,77.32
2022-10-15T06:18:45.472Z,72.73
2022-10-15T06:21:13.770Z,78.70
2022-10-15T06:23:40.938Z,71.50
2022-10-15T06:26:12.256Z,72.78
2022-10-15T06:28:39.638Z,69.60
2022-10-15T06:31:07.513Z,76.80
2022-10-15T06:33:35.079Z,69.07
2022-10-15T06:36:09.659Z,68.10
2022-10-15T06:38:37.583Z,67.80
2022-10-15T06:41:05.949Z,68.95
2022-10-15T06:43:35.180Z,67.38
2022-10-15T06:46:04.448Z,66.15
2022-10-15T06:48:31.609Z,67.07
2022-10-15T06:51:02.472Z,63.65
2022-10-15T06:53:31.266Z,69.45
2022-10-15T06:56:03.137Z,68.00
2022-10-15T06:58:30.350Z,64.72
2022-10-15T07:01:06.259Z,60.92
2022-10-15T07:03:33.616Z,63.03
2022-10-15T07:06:05.518Z,61.25
2022-10-15T07:08:33.006Z,60.75
2022-10-15T07:11:04.591Z,62.42
2022-10-15T07:13:32.967Z,55.97
2022-10-15T07:16:06.066Z,61.53
2022-10-15T07:18:35.305Z,59.65
2022-10-15T07:21:04.074Z,58.15
2022-10-15T07:23:32.497Z,54.63
2022-10-15T07:26:00.744Z,52.95
2022-10-15T07:28:27.938Z,54.40
2022-10-15T07:31:00.136Z,52.58
2022-10-15T07:33:27.260Z,56.47
2022-10-15T07:35:54.283Z,55.10
2022-10-15T07:38:21.189Z,55.88
2022-10-15T07:40:48.202Z,47.05
2022-10-15T07:43:16.209Z,53.10
2022-10-15T07:45:48.510Z,49.88
2022-10-15T07:48:15.509Z,68.60
2022-10-15T07:50:43.555Z,54.75
2022-10-15T07:53:10.730Z,49.85
2022-10-15T07:55:38.428Z,44.22
2022-10-15T07:58:08.508Z,46.47
2022-10-15T08:00:36.423Z,45.83
2022-10-15T08:03:03.467Z,46.00
2022-10-15T08:05:30.347Z,45.13
2022-10-15T08:07:57.344Z,40.38
2022-10-15T08:10:24.226Z,45.67
2022-10-15T08:12:51.157Z,44.85
2022-10-15T08:15:18.205Z,42.47
2022-10-15T08:17:45.232Z,47.33
2022-10-15T08:20:13.576Z,48.30
2022-10-15T08:22:40.526Z,46.95
2022-10-15T08:25:07.858Z,43.92
2022-10-15T08:27:34.855Z,44.05
2022-10-15T08:30:02.273Z,43.97
2022-10-15T08:32:29.462Z,46.75
2022-10-15T08:34:56.440Z,49.40
2022-10-15T08:37:23.442Z,43.63
2022-10-15T08:39:50.372Z,43.17
2022-10-15T08:42:23.355Z,45.60
2022-10-15T08:45:04.155Z,43.72
2022-10-15T08:47:51.558Z,40.15
2022-10-15T08:50:40.116Z,41.67
2022-10-15T08:53:11.335Z,43.67
2022-10-15T08:55:41.378Z,39.88
2022-10-15T08:58:21.405Z,38.90
2022-10-15T09:00:55.100Z,32.10
2022-10-15T09:03:40.231Z,36.80
2022-10-15T09:06:17.820Z,34.78
2022-10-15T09:09:02.890Z,31.38
2022-10-15T09:11:42.871Z,35.05
2022-10-15T09:14:15.929Z,32.78
2022-10-15T09:16:46.830Z,33.58
2022-10-15T09:19:18.660Z,30.08
2022-10-15T09:21:48.214Z,34.17
2022-10-15T09:24:25.192Z,28.88
2022-10-15T09:27:07.055Z,30.58
2022-10-15T09:29:45.660Z,32.65
2022-10-15T09:32:22.040Z,28.65
2022-10-15T09:35:00.703Z,30.45
2022-10-15T09:37:42.870Z,29.00
2022-10-15T09:40:37.031Z,32.08
2022-10-15T09:43:06.359Z,31.10
2022-10-15T09:45:33.716Z,32.28
2022-10-15T09:48:01.959Z,33.10
2022-10-15T09:50:47.149Z,29.80
2022-10-15T09:53:23.309Z,32.80
2022-10-15T09:56:04.179Z,34.63
2022-10-15T09:58:39.749Z,31.10
2022-10-15T10:01:17.470Z,36.42
2022-10-15T10:03:44.461Z,28.48
2022-10-15T10:06:15.239Z,29.67
2022-10-15T10:08:51.612Z,31.52
2022-10-15T10:11:19.531Z,35.92
2022-10-15T10:14:21.228Z,28.08
2022-10-15T10:17:12.889Z,30.02
2022-10-15T10:19:39.946Z,25.08
2022-10-15T10:22:20.317Z,32.47
2022-10-15T10:24:48.639Z,31.75
2022-10-15T10:27:26.007Z,30.73
2022-10-15T10:30:03.246Z,27.83
2022-10-15T10:32:35.527Z,27.83
2022-10-15T10:35:04.814Z,30.33
2022-10-15T10:37:43.019Z,29.70
2022-10-15T10:40:28.309Z,27.38
2022-10-15T10:43:17.134Z,33.60
2022-10-15T10:46:06.530Z,27.83
2022-10-15T10:48:47.006Z,37.40
2022-10-15T10:51:21.563Z,30.30
2022-10-15T10:53:50.905Z,24.90
2022-10-15T10:56:23.071Z,27.20
2022-10-15T10:59:00.430Z,30.52
2022-10-15T11:01:28.313Z,25.60
2022-10-15T11:03:55.548Z,37.35
2022-10-15T11:06:22.538Z,32.97
2022-10-15T11:09:19.648Z,34.03
2022-10-15T11:12:11.245Z,38.47
2022-10-15T11:15:21.977Z,29.25
2022-10-15T11:18:00.939Z,31.63
2022-10-15T11:20:53.035Z,28.83
2022-10-15T11:23:46.289Z,27.48
2022-10-15T11:26:37.176Z,32.00
2022-10-15T11:29:29.274Z,27.85
2022-10-15T11:32:20.059Z,32.60
2022-10-15T11:35:28.678Z,30.83
2022-10-15T11:38:08.706Z,27.70
2022-10-15T11:40:45.891Z,30.25
2022-10-15T11:43:41.348Z,32.13
2022-10-15T11:46:23.146Z,27.90
2022-10-15T11:49:16.781Z,32.20
2022-10-15T11:52:24.700Z,33.42
2022-10-15T11:55:13.139Z,26.23
2022-10-15T11:57:43.640Z,27.83
2022-10-15T12:00:29.509Z,27.65
2022-10-15T12:03:01.588Z,28.15
2022-10-15T12:05:36.190Z,28.58
2022-10-15T12:11:16.269Z,26.45
2022-10-15T12:14:11.332Z,23.35
2022-10-15T12:16:41.092Z,28.48
2022-10-15T12:19:10.959Z,25.35
2022-10-15T12:22:07.474Z,27.10
2022-10-15T12:24:41.039Z,31.05
2022-10-15T12:27:20.048Z,28.15
2022-10-15T12:30:13.427Z,27.10
2022-10-15T12:33:02.348Z,29.57
2022-10-15T12:35:36.982Z,29.85
2022-10-15T12:38:32.334Z,31.83
2022-10-15T12:41:12.350Z,27.90
2022-10-15T12:43:44.802Z,28.30
2022-10-15T12:46:13.654Z,31.13
2022-10-15T12:48:45.637Z,30.45
2022-10-15T12:51:21.908Z,29.63
2022-10-15T12:53:53.181Z,30.55
2022-10-15T12:56:25.474Z,35.13
2022-10-15T12:58:56.844Z,32.55
2022-10-15T13:01:23.844Z,32.20
2022-10-15T13:03:51.950Z,29.77
2022-10-15T13:06:24.133Z,32.30
2022-10-15T13:09:12.296Z,36.95
2022-10-15T13:12:08.074Z,31.05
2022-10-15T13:14:42.832Z,30.10
2022-10-15T13:17:19.840Z,32.25
2022-10-15T13:19:54.955Z,36.97
2022-10-15T13:22:25.686Z,38.53
2022-10-15T13:24:53.753Z,39.08
2022-10-15T13:27:27.120Z,38.15
2022-10-15T13:29:55.628Z,38.28
2022-10-15T13:32:23.599Z,37.10
2022-10-15T13:34:50.902Z,35.95
2022-10-15T13:37:23.431Z,38.85
2022-10-15T13:39:53.048Z,36.65
2022-10-15T13:42:23.713Z,38.30
2022-10-15T13:45:18.116Z,36.13
2022-10-15T13:47:51.125Z,43.15
2022-10-15T13:50:29.633Z,38.92
2022-10-15T13:53:45.656Z,39.17
2022-10-15T13:56:25.746Z,38.22
2022-10-15T13:58:55.038Z,38.50
2022-10-15T14:01:24.580Z,37.78
2022-10-15T14:03:59.889Z,40.08
2022-10-15T14:06:35.047Z,43.30
2022-10-15T14:09:28.070Z,38.75
2022-10-15T14:11:59.189Z,43.35
2022-10-15T14:14:44.223Z,44.10
2022-10-15T14:17:25.844Z,40.80
2022-10-15T14:20:33.676Z,42.67
2022-10-15T14:23:03.390Z,42.58
2022-10-15T14:25:30.492Z,39.35
2022-10-15T14:27:57.465Z,37.78
2022-10-15T14:30:34.690Z,46.10
2022-10-15T14:33:02.715Z,42.58
2022-10-15T14:35:33.214Z,43.28
2022-10-15T14:38:02.980Z,42.45
2022-10-15T14:40:30.479Z,46.25
2022-10-15T14:43:08.336Z,43.08
2022-10-15T14:45:44.049Z,44.05
2022-10-15T14:48:38.358Z,51.70
2022-10-15T14:53:39.731Z,52.03
2022-10-15T14:56:32.592Z,52.97
2022-10-15T14:59:01.411Z,51.67
2022-10-15T15:01:30.619Z,50.08
2022-10-15T15:03:57.843Z,53.17
2022-10-15T15:06:24.980Z,49.33
2022-10-15T15:08:52.094Z,53.15
2022-10-15T15:11:23.019Z,49.65
2022-10-15T15:13:50.283Z,52.00
2022-10-15T15:16:18.745Z,49.28
2022-10-15T15:18:46.846Z,54.05
2022-10-15T15:21:17.572Z,55.00
2022-10-15T15:23:44.959Z,57.33
2022-10-15T15:26:11.863Z,63.63
2022-10-15T15:28:38.889Z,54.72
2022-10-15T15:31:15.748Z,59.17
2022-10-15T15:33:42.769Z,56.22
2022-10-15T15:36:18.945Z,52.38
2022-10-15T15:38:50.762Z,58.92
2022-10-15T15:41:24.164Z,58.33
2022-10-15T15:43:52.300Z,50.30
2022-10-15T15:46:19.370Z,56.80
2022-10-15T15:48:46.295Z,55.00
2022-10-15T15:51:30.911Z,54.33
2022-10-15T15:53:58.945Z,53.22
2022-10-15T15:56:26.191Z,50.88
2022-10-15T15:58:53.364Z,48.88
2022-10-15T16:01:21.246Z,44.53
2022-10-15T16:03:48.400Z,47.08
2022-10-15T16:06:15.326Z,45.53
2022-10-15T16:08:42.400Z,33.45
2022-10-15T16:11:09.452Z,42.00
2022-10-15T16:13:36.398Z,41.90
2022-10-15T16:16:03.674Z,39.22
2022-10-15T16:18:31.622Z,41.00
2022-10-15T16:20:59.806Z,39.65
2022-10-15T16:23:26.941Z,36.33
2022-10-15T16:25:55.189Z,38.00
2022-10-15T16:28:22.196Z,39.17
2022-10-15T16:30:49.616Z,38.70
2022-10-15T16:33:16.589Z,35.35
2022-10-15T16:35:43.569Z,39.35
2022-10-15T16:38:10.654Z,34.28
2022-10-15T16:40:38.955Z,34.33
2022-10-15T16:43:06.881Z,37.67
2022-10-15T16:45:33.983Z,37.05
2022-10-15T16:48:01.087Z,35.65
2022-10-15T16:50:28.041Z,39.08
2022-10-15T16:52:55.043Z,35.95
2022-10-15T16:55:23.737Z,37.13
2022-10-15T16:57:50.780Z,35.67
2022-10-15T17:00:17.808Z,32.65
2022-10-15T17:02:44.805Z,34.40
2022-10-15T17:05:12.012Z,34.97
2022-10-15T17:07:39.139Z,43.03
2022-10-15T17:10:09.640Z,35.35
2022-10-15T17:12:39.765Z,36.83
2022-10-15T17:15:07.566Z,36.90
2022-10-15T17:17:37.264Z,34.63
2022-10-15T17:20:04.983Z,32.03
2022-10-15T17:22:32.267Z,34.38
2022-10-15T17:25:00.702Z,31.13
2022-10-15T17:27:27.798Z,30.95
2022-10-15T17:29:54.831Z,27.63
2022-10-15T17:32:22.147Z,27.45
2022-10-15T17:34:49.303Z,26.95
2022-10-15T17:37:17.391Z,25.75
2022-10-15T17:39:44.977Z,25.80
2022-10-15T17:42:13.833Z,23.15
2022-10-15T17:44:40.840Z,27.40
2022-10-15T17:47:07.884Z,25.83
2022-10-15T17:49:34.853Z,23.02
2022-10-15T17:52:01.891Z,22.73
2022-10-15T17:54:28.837Z,21.27
2022-10-15T17:56:55.894Z,23.00
2022-10-15T17:59:23.041Z,22.42
2022-10-15T18:01:58.796Z,21.77
2022-10-15T18:04:28.256Z,23.30
2022-10-15T18:06:55.805Z,21.30
2022-10-15T18:09:25.366Z,20.33
2022-10-15T18:11:53.426Z,22.02
2022-10-15T18:14:22.350Z,20.58
2022-10-15T18:16:49.603Z,19.52
2022-10-15T18:19:16.910Z,20.35
2022-10-15T18:21:48.488Z,23.65
2022-10-15T18:24:24.769Z,19.73
2022-10-15T18:26:53.394Z,20.33
2022-10-15T18:29:21.053Z,19.95
2022-10-15T18:31:52.178Z,20.67
2022-10-15T18:34:24.595Z,22.80
2022-10-15T18:36:52.939Z,17.83
2022-10-15T18:39:20.245Z,18.10
2022-10-15T18:41:47.798Z,18.25
2022-10-15T18:44:17.627Z,18.60
2022-10-15T18:46:46.159Z,15.20
2022-10-15T18:49:17.216Z,14.25
2022-10-15T18:51:52.055Z,14.52
2022-10-15T18:54:22.680Z,13.50
2022-10-15T18:56:50.096Z,14.45
2022-10-15T18:59:17.562Z,12.32
2022-10-15T19:01:46.785Z,14.80
2022-10-15T19:04:19.760Z,16.33
2022-10-15T19:06:49.834Z,11.80
2022-10-15T19:09:19.722Z,12.32
2022-10-15T19:11:49.027Z,11.57
2022-10-15T19:14:16.247Z,11.20
2022-10-15T19:16:45.575Z,12.77
2022-10-15T19:19:16.509Z,11.48
2022-10-15T19:21:44.390Z,9.63
2022-10-15T19:24:11.743Z,10.75
2022-10-15T19:26:39.202Z,11.75
2022-10-15T19:29:06.582Z,9.52
2022-10-15T19:31:40.902Z,12.55
2022-10-15T19:34:08.246Z,10.35
2022-10-15T19:36:41.904Z,10.77
2022-10-15T19:39:17.508Z,11.82
2022-10-15T19:41:45.672Z,9.50
2022-10-15T19:44:14.640Z,10.00
2022-10-15T19:46:41.947Z,8.88
2022-10-15T19:49:11.965Z,7.55
2022-10-15T19:51:41.735Z,8.93
2022-10-15T19:54:10.000Z,8.77
2022-10-15T19:56:38.160Z,7.43
2022-10-15T19:59:07.065Z,11.35
2022-10-15T20:01:36.298Z,16.35
2022-10-15T20:04:07.476Z,9.20
2022-10-15T20:06:38.571Z,6.90
2022-10-15T20:09:08.143Z,8.60
2022-10-15T20:11:35.923Z,6.85
2022-10-15T20:14:05.883Z,7.18
2022-10-15T20:16:33.658Z,11.45
2022-10-15T20:19:05.750Z,7.90
2022-10-15T20:21:33.925Z,8.65
2022-10-15T20:24:04.724Z,8.50
2022-10-15T20:26:32.378Z,8.45
2022-10-15T20:28:59.872Z,7.75
2022-10-15T20:31:32.442Z,8.15
2022-10-15T20:34:03.081Z,9.03
2022-10-15T20:36:30.434Z,8.70
2022-10-15T20:38:59.863Z,8.27
2022-10-15T20:41:26.913Z,8.77
2022-10-15T20:43:56.250Z,7.15
2022-10-15T20:46:29.360Z,11.15
2022-10-15T20:49:00.537Z,10.38
2022-10-15T20:51:29.125Z,9.80
2022-10-15T20:53:59.408Z,12.23
2022-10-15T20:56:26.611Z,6.93
2022-10-15T20:58:54.624Z,8.43
2022-10-15T21:01:21.692Z,9.73
2022-10-15T21:03:48.687Z,8.90
2022-10-15T21:06:18.044Z,8.55
2022-10-15T21:08:45.095Z,10.10
2022-10-15T21:11:12.078Z,8.20
2022-10-15T21:13:40.057Z,8.68
2022-10-15T21:16:09.193Z,10.00
2022-10-15T21:18:36.972Z,28.50
2022-10-15T21:21:14.205Z,9.07
2022-10-15T21:23:43.042Z,15.40
2022-10-15T21:26:16.533Z,14.52
2022-10-15T21:28:44.314Z,29.23
2022-10-15T21:31:16.595Z,11.07
2022-10-15T21:33:44.640Z,7.65
2022-10-15T21:36:13.531Z,7.95
2022-10-15T21:38:41.397Z,9.90
2022-10-15T21:41:09.571Z,8.75
2022-10-15T21:43:37.683Z,8.73
2022-10-15T21:46:10.940Z,12.43
2022-10-15T21:48:39.828Z,10.25
2022-10-15T21:51:13.020Z,7.80
2022-10-15T21:53:42.534Z,7.43
2022-10-15T21:56:10.071Z,6.97
2022-10-15T21:58:38.314Z,9.27
2022-10-15T22:01:17.109Z,8.00
2022-10-15T22:03:46.809Z,8.52
2022-10-15T22:06:14.201Z,7.85
2022-10-15T22:08:41.969Z,7.85
2022-10-15T22:11:13.592Z,10.27
2022-10-15T22:13:43.291Z,9.63
2022-10-15T22:16:13.652Z,9.20
2022-10-15T22:18:41.169Z,9.70
2022-10-15T22:21:32.710Z,10.18
2022-10-15T22:24:02.279Z,13.15
2022-10-15T22:26:34.613Z,9.23
2022-10-15T22:29:05.310Z,12.77
2022-10-15T22:31:33.182Z,12.88
2022-10-15T22:34:00.544Z,12.55
2022-10-15T22:36:31.864Z,11.63
2022-10-15T22:39:02.032Z,11.43
2022-10-15T22:41:34.923Z,13.93
2022-10-15T22:44:01.857Z,13.52
2022-10-15T22:46:31.689Z,16.40
2022-10-15T22:48:58.645Z,17.80
2022-10-15T22:51:26.018Z,16.05
2022-10-15T22:53:56.778Z,17.27
2022-10-15T22:56:25.192Z,29.38
2022-10-15T22:58:52.413Z,18.40
2022-10-15T23:01:28.057Z,15.30
2022-10-15T23:04:19.452Z,18.70
2022-10-15T23:06:47.399Z,16.85
2022-10-15T23:09:18.187Z,23.10
2022-10-15T23:11:46.219Z,17.60
2022-10-15T23:14:15.255Z,19.20
2022-10-15T23:16:48.195Z,21.30
2022-10-15T23:19:18.882Z,18.92
2022-10-15T23:21:56.256Z,23.25
2022-10-15T23:24:26.288Z,23.67
2022-10-15T23:26:53.399Z,22.00
2022-10-15T23:29:24.324Z,23.35
2022-10-15T23:31:53.191Z,26.23
2022-10-15T23:34:22.947Z,23.25
2022-10-15T23:36:51.825Z,25.45
2022-10-15T23:39:25.156Z,23.52
2022-10-15T23:41:52.718Z,28.67
2022-10-15T23:44:20.033Z,27.00
2022-10-15T23:46:47.082Z,24.27
2022-10-15T23:49:15.092Z,24.80
2022-10-15T23:51:42.159Z,29.75
2022-10-15T23:54:16.397Z,28.67
2022-10-15T23:56:46.204Z,29.48
2022-10-15T23:59:13.606Z,31.67
